createdAt,value
2023-01-06T00:02:02.457Z,5.96
2023-01-06T00:07:03.983Z,6.02
2023-01-06T00:12:06.929Z,6.37
2023-01-06T00:17:08.788Z,6.09
2023-01-06T00:22:10.278Z,6.04
2023-01-06T00:27:11.684Z,5.92
2023-01-06T00:32:13.086Z,5.82
2023-01-06T00:37:14.678Z,5.85
2023-01-06T00:42:16.193Z,5.86
2023-01-06T00:47:18.131Z,5.86
2023-01-06T00:52:19.533Z,6.02
2023-01-06T00:57:20.950Z,5.81
2023-01-06T01:02:22.625Z,5.48
2023-01-06T01:07:24.131Z,5.35
2023-01-06T01:12:25.583Z,5.50
2023-01-06T01:17:30.410Z,5.39
2023-01-06T01:22:32.208Z,5.06
2023-01-06T01:27:33.625Z,5.11
2023-01-06T01:32:35.054Z,5.23
2023-01-06T01:37:36.500Z,5.31
2023-01-06T01:42:38.017Z,5.38
2023-01-06T01:47:56.526Z,5.49
2023-01-06T01:53:07.596Z,5.54
2023-01-06T01:58:18.335Z,5.51
2023-01-06T02:03:21.777Z,5.43
2023-01-06T02:08:34.937Z,5.44
2023-01-06T02:13:38.944Z,5.35
2023-01-06T02:18:54.080Z,5.34
2023-01-06T02:24:12.897Z,5.29
2023-01-06T02:29:29.456Z,5.18
2023-01-06T02:34:41.652Z,5.21
2023-01-06T02:40:18.408Z,5.07
2023-01-06T02:45:40.258Z,4.95
2023-01-06T02:50:50.295Z,4.91
2023-01-06T02:55:54.891Z,4.84
2023-01-06T03:01:05.364Z,4.84
2023-01-06T03:06:11.807Z,4.76
2023-01-06T03:11:13.911Z,4.61
2023-01-06T03:16:16.414Z,4.56
2023-01-06T03:21:22.414Z,4.61
2023-01-06T03:26:24.986Z,4.63
2023-01-06T03:31:37.442Z,4.62
2023-01-06T03:36:53.298Z,4.79
2023-01-06T03:42:35.611Z,4.74
2023-01-06T03:48:04.637Z,4.82
2023-01-06T03:53:34.180Z,4.88
2023-01-06T03:58:38.743Z,4.90
2023-01-06T04:03:40.356Z,4.93
2023-01-06T04:08:41.870Z,5.00
2023-01-06T04:13:43.294Z,5.04
2023-01-06T04:18:45.010Z,4.98
2023-01-06T04:23:46.457Z,5.04
2023-01-06T04:28:47.887Z,5.10
2023-01-06T04:33:49.293Z,5.16
2023-01-06T04:38:50.936Z,5.30
2023-01-06T04:43:52.539Z,5.32
2023-01-06T04:48:53.969Z,5.37
2023-01-06T04:53:55.935Z,5.31
2023-01-06T04:58:57.844Z,5.32
2023-01-06T05:03:59.353Z,5.32
2023-01-06T05:09:00.860Z,5.33
2023-01-06T05:14:02.280Z,5.37
2023-01-06T05:19:04.133Z,5.41
2023-01-06T05:24:05.794Z,5.42
2023-01-06T05:29:07.230Z,5.37
2023-01-06T05:34:10.628Z,5.22
2023-01-06T05:39:12.044Z,5.23
2023-01-06T05:44:13.524Z,5.25
2023-01-06T05:49:14.939Z,5.20
2023-01-06T05:54:16.472Z,5.24
2023-01-06T05:59:17.882Z,5.20
2023-01-06T06:04:19.298Z,5.28
2023-01-06T06:09:20.779Z,5.25
2023-01-06T06:14:22.246Z,5.26
2023-01-06T06:19:23.734Z,5.31
2023-01-06T06:24:25.143Z,5.35
2023-01-06T06:29:26.566Z,5.32
2023-01-06T06:34:28.016Z,5.30
2023-01-06T06:39:29.905Z,5.24
2023-01-06T06:44:31.354Z,5.21
2023-01-06T06:49:32.792Z,5.21
2023-01-06T06:54:34.350Z,5.09
2023-01-06T06:59:35.770Z,5.06
2023-01-06T07:04:37.288Z,5.10
2023-01-06T07:09:38.847Z,5.11
2023-01-06T07:14:40.282Z,5.16
2023-01-06T07:19:41.706Z,5.19
2023-01-06T07:24:43.154Z,5.19
2023-01-06T07:29:44.573Z,5.07
2023-01-06T07:34:46.001Z,4.97
2023-01-06T07:39:47.438Z,5.08
2023-01-06T07:44:48.949Z,5.04
2023-01-06T07:49:50.347Z,5.10
2023-01-06T07:54:51.752Z,5.10
2023-01-06T07:59:53.290Z,5.04
2023-01-06T08:04:54.696Z,5.08
2023-01-06T08:09:56.106Z,5.01
2023-01-06T08:14:57.534Z,4.99
2023-01-06T08:19:58.951Z,5.18
2023-01-06T08:25:00.388Z,5.06
2023-01-06T08:30:01.858Z,5.10
2023-01-06T08:35:03.395Z,5.04
2023-01-06T08:40:05.413Z,5.10
2023-01-06T08:45:07.997Z,5.00
2023-01-06T08:50:09.455Z,5.03
2023-01-06T08:55:10.948Z,5.19
2023-01-06T09:00:13.111Z,5.34
2023-01-06T09:05:14.883Z,5.20
2023-01-06T09:10:17.352Z,5.17
2023-01-06T09:15:18.851Z,5.23
2023-01-06T09:20:20.286Z,5.37
2023-01-06T09:25:22.724Z,5.50
2023-01-06T09:30:25.281Z,5.54
2023-01-06T09:35:26.718Z,5.60
2023-01-06T09:40:58.039Z,5.53
2023-01-06T09:46:02.675Z,5.45
2023-01-06T09:51:06.824Z,5.65
2023-01-06T09:56:15.101Z,5.55
2023-01-06T10:01:22.498Z,5.39
2023-01-06T10:07:02.496Z,5.74
2023-01-06T10:12:35.399Z,5.96
2023-01-06T10:18:10.603Z,5.93
2023-01-06T10:23:21.085Z,6.03
2023-01-06T10:28:30.304Z,6.23
2023-01-06T10:33:35.830Z,6.35
2023-01-06T10:38:49.683Z,6.41
2023-01-06T10:43:51.837Z,6.52
2023-01-06T10:48:53.259Z,6.47
2023-01-06T10:53:57.831Z,6.52
2023-01-06T10:59:08.385Z,6.41
2023-01-06T11:04:15.388Z,6.44
2023-01-06T11:09:45.196Z,6.67
2023-01-06T11:14:57.578Z,6.56
2023-01-06T11:20:13.405Z,6.60
2023-01-06T11:25:20.569Z,6.61
2023-01-06T11:30:26.827Z,6.73
2023-01-06T11:35:33.531Z,6.90
2023-01-06T11:40:37.587Z,7.08
2023-01-06T11:45:49.346Z,7.21
2023-01-06T11:50:54.014Z,7.27
2023-01-06T11:56:07.504Z,7.16
2023-01-06T12:01:33.465Z,7.36
2023-01-06T12:06:39.771Z,7.41
2023-01-06T12:11:45.859Z,7.43
2023-01-06T12:16:52.441Z,7.29
2023-01-06T12:21:55.158Z,7.28
2023-01-06T12:26:57.149Z,7.02
2023-01-06T12:32:19.674Z,7.18
2023-01-06T12:37:38.066Z,7.17
2023-01-06T12:42:49.431Z,7.22
2023-01-06T12:47:56.335Z,7.26
2023-01-06T12:53:20.460Z,7.24
2023-01-06T12:58:29.035Z,7.24
2023-01-06T13:03:39.988Z,7.30
2023-01-06T13:09:14.989Z,7.18
2023-01-06T13:14:38.435Z,7.30
2023-01-06T13:19:57.777Z,7.39
2023-01-06T13:25:31.329Z,7.46
2023-01-06T13:31:11.280Z,7.46
2023-01-06T13:36:52.993Z,7.42
2023-01-06T13:41:57.664Z,7.55
2023-01-06T13:47:08.083Z,7.58
2023-01-06T13:52:30.770Z,7.65
2023-01-06T13:57:35.573Z,7.59
2023-01-06T14:02:39.615Z,7.54
2023-01-06T14:07:48.972Z,7.67
2023-01-06T14:12:50.362Z,7.73
2023-01-06T14:17:52.125Z,7.72
2023-01-06T14:23:07.607Z,7.61
2023-01-06T14:28:27.714Z,7.55
2023-01-06T14:33:39.862Z,7.48
2023-01-06T14:38:46.292Z,7.47
2023-01-06T14:43:54.320Z,7.52
2023-01-06T14:49:01.235Z,7.51
2023-01-06T14:54:08.828Z,7.53
2023-01-06T14:59:15.764Z,7.45
2023-01-06T15:04:26.972Z,7.56
2023-01-06T15:09:29.038Z,7.54
2023-01-06T15:14:33.535Z,7.67
2023-01-06T15:19:35.428Z,7.76
2023-01-06T15:24:42.708Z,7.73
2023-01-06T15:29:55.407Z,7.71
2023-01-06T15:34:59.418Z,7.67
2023-01-06T15:40:01.931Z,7.72
2023-01-06T15:45:06.837Z,7.74
2023-01-06T15:50:18.721Z,7.78
2023-01-06T15:55:25.034Z,7.84
2023-01-06T16:00:31.157Z,7.92
2023-01-06T16:05:42.831Z,7.93
2023-01-06T16:10:46.135Z,8.01
2023-01-06T16:15:55.677Z,8.16
2023-01-06T16:20:58.426Z,8.35
2023-01-06T16:26:10.535Z,8.42
2023-01-06T16:31:13.853Z,8.47
2023-01-06T16:36:16.926Z,8.59
2023-01-06T16:41:19.542Z,8.62
2023-01-06T16:46:25.839Z,8.62
2023-01-06T16:51:28.750Z,8.69
2023-01-06T16:56:30.182Z,8.70
2023-01-06T17:01:31.752Z,8.70
2023-01-06T17:06:33.231Z,8.76
2023-01-06T17:11:38.045Z,8.79
2023-01-06T17:16:41.838Z,8.79
2023-01-06T17:21:43.336Z,8.80
2023-01-06T17:26:51.420Z,8.92
2023-01-06T17:31:55.656Z,9.10
2023-01-06T17:36:58.540Z,9.10
2023-01-06T17:42:12.149Z,9.08
2023-01-06T17:47:16.395Z,9.20
2023-01-06T17:52:21.322Z,9.31
2023-01-06T17:57:22.737Z,9.36
2023-01-06T18:02:43.975Z,9.36
2023-01-06T18:07:45.368Z,9.36
2023-01-06T18:12:46.820Z,9.36
2023-01-06T18:17:48.333Z,9.42
2023-01-06T18:22:49.755Z,9.49
2023-01-06T18:27:51.505Z,9.47
2023-01-06T18:32:53.316Z,9.45
2023-01-06T18:37:59.190Z,9.46
2023-01-06T18:43:17.029Z,9.50
2023-01-06T18:48:24.966Z,9.53
2023-01-06T18:53:32.333Z,9.63
2023-01-06T18:58:37.169Z,9.59
2023-01-06T19:03:41.527Z,9.59
2023-01-06T19:08:45.866Z,9.67
2023-01-06T19:13:48.030Z,9.63
2023-01-06T19:18:49.554Z,9.63
2023-01-06T19:23:50.989Z,9.67
2023-01-06T19:28:59.419Z,9.70
2023-01-06T19:34:03.294Z,9.72
2023-01-06T19:39:39.600Z,9.62
2023-01-06T19:44:41.453Z,9.72
2023-01-06T19:49:46.511Z,9.80
2023-01-06T19:54:47.909Z,9.77
2023-01-06T19:59:49.324Z,9.73
2023-01-06T20:04:50.793Z,9.62
2023-01-06T20:09:53.867Z,9.66
2023-01-06T20:14:55.273Z,9.68
2023-01-06T20:19:56.699Z,9.79
2023-01-06T20:24:58.127Z,9.71
2023-01-06T20:29:59.592Z,9.71
2023-01-06T20:35:01.057Z,9.77
2023-01-06T20:40:02.622Z,9.56
2023-01-06T20:45:04.722Z,9.72
2023-01-06T20:50:07.458Z,9.50
2023-01-06T20:55:09.619Z,9.44
2023-01-06T21:00:12.727Z,9.35
2023-01-06T21:05:14.232Z,9.39
2023-01-06T21:10:15.741Z,9.40
2023-01-06T21:15:17.466Z,9.41
2023-01-06T21:20:18.889Z,9.37
2023-01-06T21:25:20.378Z,9.48
2023-01-06T21:30:22.631Z,9.49
2023-01-06T21:35:24.277Z,9.64
2023-01-06T21:40:25.854Z,9.63
2023-01-06T21:45:27.370Z,9.45
2023-01-06T21:50:30.303Z,9.40
2023-01-06T21:55:31.845Z,9.09
2023-01-06T22:00:33.308Z,9.27
2023-01-06T22:05:34.936Z,9.22
2023-01-06T22:10:40.154Z,9.16
2023-01-06T22:15:42.427Z,9.31
2023-01-06T22:20:44.446Z,9.22
2023-01-06T22:25:45.975Z,9.23
2023-01-06T22:30:47.406Z,9.03
2023-01-06T22:35:48.941Z,9.04
2023-01-06T22:40:50.403Z,9.02
2023-01-06T22:45:56.983Z,8.99
2023-01-06T22:51:02.924Z,9.06
2023-01-06T22:56:10.243Z,9.05
2023-01-06T23:01:11.798Z,9.06
2023-01-06T23:06:16.252Z,9.04
2023-01-06T23:11:19.562Z,8.97
2023-01-06T23:16:22.571Z,8.92
2023-01-06T23:21:27.098Z,8.89
2023-01-06T23:26:29.997Z,8.83
2023-01-06T23:31:35.337Z,8.78
2023-01-06T23:36:38.290Z,8.68
2023-01-06T23:41:40.020Z,8.64
2023-01-06T23:46:42.544Z,8.62
2023-01-06T23:51:44.462Z,8.43
2023-01-06T23:56:45.881Z,8.43
